sensor_id;sensor_type;location;lat;lon;timestamp;pressure;altitude;pressure_sealevel;temperature;humidity
50394;BME280;36308;46.312;25.288;2023-03-05T00:01:06;95503.81;;;-0.18;64.27
50394;BME280;36308;46.312;25.288;2023-03-05T00:03:32;95505.03;;;-0.21;65.16
50394;BME280;36308;46.312;25.288;2023-03-05T00:05:58;95487.94;;;-0.31;64.67
50394;BME280;36308;46.312;25.288;2023-03-05T00:08:24;95499.53;;;-0.26;65.30
50394;BME280;36308;46.312;25.288;2023-03-05T00:11:00;95503.00;;;-0.25;64.84
50394;BME280;36308;46.312;25.288;2023-03-05T00:13:26;95492.22;;;-0.30;65.02
50394;BME280;36308;46.312;25.288;2023-03-05T00:15:52;95494.47;;;-0.34;64.89
50394;BME280;36308;46.312;25.288;2023-03-05T00:18:17;95480.22;;;-0.39;64.77
50394;BME280;36308;46.312;25.288;2023-03-05T00:20:43;95476.97;;;-0.48;64.92
50394;BME280;36308;46.312;25.288;2023-03-05T00:23:09;95496.06;;;-0.39;65.03
50394;BME280;36308;46.312;25.288;2023-03-05T00:25:35;95494.47;;;-0.41;65.11
50394;BME280;36308;46.312;25.288;2023-03-05T00:28:01;95485.94;;;-0.43;64.85
50394;BME280;36308;46.312;25.288;2023-03-05T00:30:26;95468.63;;;-0.58;65.02
50394;BME280;36308;46.312;25.288;2023-03-05T00:32:52;95457.06;;;-0.64;65.12
50394;BME280;36308;46.312;25.288;2023-03-05T00:35:18;95478.63;;;-0.54;65.54
50394;BME280;36308;46.312;25.288;2023-03-05T00:37:43;95460.72;;;-0.65;65.23
50394;BME280;36308;46.312;25.288;2023-03-05T00:40:09;95482.25;;;-0.55;65.32
50394;BME280;36308;46.312;25.288;2023-03-05T00:42:35;95476.97;;;-0.62;65.14
50394;BME280;36308;46.312;25.288;2023-03-05T00:45:04;95485.09;;;-0.56;65.28
50394;BME280;36308;46.312;25.288;2023-03-05T00:47:31;95465.19;;;-0.72;65.19
50394;BME280;36308;46.312;25.288;2023-03-05T00:49:56;95450.53;;;-0.82;65.75
50394;BME280;36308;46.312;25.288;2023-03-05T00:52:22;95480.84;;;-0.64;65.51
50394;BME280;36308;46.312;25.288;2023-03-05T00:54:47;95452.19;;;-0.80;65.61
50394;BME280;36308;46.312;25.288;2023-03-05T00:57:13;95469.25;;;-0.76;65.91
50394;BME280;36308;46.312;25.288;2023-03-05T00:59:38;95462.72;;;-0.80;65.95
50394;BME280;36308;46.312;25.288;2023-03-05T01:02:04;95454.78;;;-0.87;65.60
50394;BME280;36308;46.312;25.288;2023-03-05T01:04:29;95465.97;;;-0.78;66.20
50394;BME280;36308;46.312;25.288;2023-03-05T01:06:55;95464.53;;;-0.81;65.79
50394;BME280;36308;46.312;25.288;2023-03-05T01:09:21;95464.53;;;-0.81;65.57
50394;BME280;36308;46.312;25.288;2023-03-05T01:11:50;95474.53;;;-0.76;65.97
50394;BME280;36308;46.312;25.288;2023-03-05T01:14:15;95459.88;;;-0.86;66.10
50394;BME280;36308;46.312;25.288;2023-03-05T01:16:41;95463.13;;;-0.84;65.68
50394;BME280;36308;46.312;25.288;2023-03-05T01:19:07;95455.81;;;-0.88;66.26
50394;BME280;36308;46.312;25.288;2023-03-05T01:21:34;95464.75;;;-0.83;66.07
50394;BME280;36308;46.312;25.288;2023-03-05T01:24:00;95468.81;;;-0.80;66.03
50394;BME280;36308;46.312;25.288;2023-03-05T01:26:25;95452.97;;;-0.87;66.39
50394;BME280;36308;46.312;25.288;2023-03-05T01:28:51;95472.25;;;-0.79;66.48
50394;BME280;36308;46.312;25.288;2023-03-05T01:31:17;95450.09;;;-0.92;66.12
50394;BME280;36308;46.312;25.288;2023-03-05T01:33:42;95445.25;;;-0.95;66.49
50394;BME280;36308;46.312;25.288;2023-03-05T01:36:10;95469.63;;;-0.79;66.39
50394;BME280;36308;46.312;25.288;2023-03-05T01:38:39;95454.19;;;-0.89;66.58
50394;BME280;36308;46.312;25.288;2023-03-05T01:41:05;95464.16;;;-0.85;66.30
50394;BME280;36308;46.312;25.288;2023-03-05T01:43:31;95455.81;;;-0.88;66.50
50394;BME280;36308;46.312;25.288;2023-03-05T01:48:43;95473.50;;;-0.75;66.94
50394;BME280;36308;46.312;25.288;2023-03-05T01:51:11;95461.94;;;-0.74;66.76
50394;BME280;36308;46.312;25.288;2023-03-05T01:53:38;95463.97;;;-0.76;66.57
50394;BME280;36308;46.312;25.288;2023-03-05T01:56:04;95452.97;;;-0.80;66.87
50394;BME280;36308;46.312;25.288;2023-03-05T01:58:30;95460.28;;;-0.75;66.50
50394;BME280;36308;46.312;25.288;2023-03-05T02:00:56;95466.78;;;-0.71;66.74
50394;BME280;36308;46.312;25.288;2023-03-05T02:03:22;95439.97;;;-0.82;67.14
50394;BME280;36308;46.312;25.288;2023-03-05T02:05:49;95441.00;;;-0.83;66.82
50394;BME280;36308;46.312;25.288;2023-03-05T02:08:17;95468.03;;;-0.67;67.39
50394;BME280;36308;46.312;25.288;2023-03-05T02:10:45;95462.75;;;-0.67;67.19
50394;BME280;36308;46.312;25.288;2023-03-05T02:13:23;95443.47;;;-0.74;67.21
50394;BME280;36308;46.312;25.288;2023-03-05T02:15:51;95457.88;;;-0.64;67.04
50394;BME280;36308;46.312;25.288;2023-03-05T02:18:19;95457.69;;;-0.62;67.28
50394;BME280;36308;46.312;25.288;2023-03-05T02:23:13;95443.25;;;-0.66;67.04
50394;BME280;36308;46.312;25.288;2023-03-05T02:25:38;95441.00;;;-0.69;66.88
50394;BME280;36308;46.312;25.288;2023-03-05T02:28:13;95461.13;;;-0.55;67.44
50394;BME280;36308;46.312;25.288;2023-03-05T02:30:40;95435.94;;;-0.64;67.22
50394;BME280;36308;46.312;25.288;2023-03-05T02:33:06;95428.00;;;-0.71;66.85
50394;BME280;36308;46.312;25.288;2023-03-05T02:35:31;95451.19;;;-0.53;67.42
50394;BME280;36308;46.312;25.288;2023-03-05T02:37:57;95423.34;;;-0.69;67.26
50394;BME280;36308;46.312;25.288;2023-03-05T02:40:23;95436.16;;;-0.59;67.04
50394;BME280;36308;46.312;25.288;2023-03-05T02:42:48;95421.31;;;-0.73;67.27
50394;BME280;36308;46.312;25.288;2023-03-05T02:45:14;95433.50;;;-0.66;67.13
50394;BME280;36308;46.312;25.288;2023-03-05T02:47:40;95428.22;;;-0.72;67.54
50394;BME280;36308;46.312;25.288;2023-03-05T02:50:06;95456.03;;;-0.56;67.08
50394;BME280;36308;46.312;25.288;2023-03-05T02:52:32;95441.84;;;-0.62;67.23
50394;BME280;36308;46.312;25.288;2023-03-05T02:54:58;95461.13;;;-0.55;67.22
50394;BME280;36308;46.312;25.288;2023-03-05T02:57:24;95439.59;;;-0.65;67.07
50394;BME280;36308;46.312;25.288;2023-03-05T02:59:50;95463.16;;;-0.57;66.94
50394;BME280;36308;46.312;25.288;2023-03-05T03:02:15;95452.19;;;-0.61;67.19
50394;BME280;36308;46.312;25.288;2023-03-05T03:04:42;95427.63;;;-0.74;67.23
50394;BME280;36308;46.312;25.288;2023-03-05T03:07:09;95418.47;;;-0.78;67.42
50394;BME280;36308;46.312;25.288;2023-03-05T03:09:34;95435.72;;;-0.69;67.14
50394;BME280;36308;46.312;25.288;2023-03-05T03:12:01;95445.69;;;-0.65;67.05
50394;BME280;36308;46.312;25.288;2023-03-05T03:14:31;95440.00;;;-0.68;67.37
50394;BME280;36308;46.312;25.288;2023-03-05T03:16:57;95417.63;;;-0.86;67.22
50394;BME280;36308;46.312;25.288;2023-03-05T03:19:23;95435.72;;;-0.76;66.87
50394;BME280;36308;46.312;25.288;2023-03-05T03:21:48;95413.16;;;-0.92;67.32
50394;BME280;36308;46.312;25.288;2023-03-05T03:24:14;95426.59;;;-0.87;66.83
50394;BME280;36308;46.312;25.288;2023-03-05T03:26:40;95439.59;;;-0.78;67.29
50394;BME280;36308;46.312;25.288;2023-03-05T03:29:05;95426.59;;;-0.87;66.95
50394;BME280;36308;46.312;25.288;2023-03-05T03:31:31;95415.19;;;-0.94;67.36
50394;BME280;36308;46.312;25.288;2023-03-05T03:33:56;95413.59;;;-0.95;67.02
50394;BME280;36308;46.312;25.288;2023-03-05T03:36:22;95418.44;;;-0.92;67.45
50394;BME280;36308;46.312;25.288;2023-03-05T03:38:47;95406.06;;;-0.98;67.46
50394;BME280;36308;46.312;25.288;2023-03-05T03:41:13;95397.53;;;-1.07;67.11
50394;BME280;36308;46.312;25.288;2023-03-05T03:43:38;95393.84;;;-1.12;67.23
50394;BME280;36308;46.312;25.288;2023-03-05T03:46:05;95421.69;;;-0.96;67.19
50394;BME280;36308;46.312;25.288;2023-03-05T03:48:31;95413.16;;;-1.05;67.64
50394;BME280;36308;46.312;25.288;2023-03-05T03:50:56;95406.66;;;-1.09;67.66
50394;BME280;36308;46.312;25.288;2023-03-05T03:53:22;95414.56;;;-1.09;67.79
50394;BME280;36308;46.312;25.288;2023-03-05T03:55:48;95408.44;;;-1.16;67.79
50394;BME280;36308;46.312;25.288;2023-03-05T03:58:13;95420.66;;;-1.09;67.56
50394;BME280;36308;46.312;25.288;2023-03-05T04:00:40;95397.69;;;-1.22;67.87
50394;BME280;36308;46.312;25.288;2023-03-05T04:03:06;95404.38;;;-1.26;67.83
50394;BME280;36308;46.312;25.288;2023-03-05T04:05:32;95393.59;;;-1.31;67.97
50394;BME280;36308;46.312;25.288;2023-03-05T04:07:58;95407.00;;;-1.26;68.06
50394;BME280;36308;46.312;25.288;2023-03-05T04:10:24;95403.75;;;-1.28;68.02
50394;BME280;36308;46.312;25.288;2023-03-05T04:12:51;95415.75;;;-1.18;68.02
50394;BME280;36308;46.312;25.288;2023-03-05T04:15:16;95390.56;;;-1.34;68.26
50394;BME280;36308;46.312;25.288;2023-03-05T04:17:42;95389.97;;;-1.36;67.96
50394;BME280;36308;46.312;25.288;2023-03-05T04:20:08;95400.09;;;-1.33;68.10
50394;BME280;36308;46.312;25.288;2023-03-05T04:22:35;95398.50;;;-1.28;68.27
50394;BME280;36308;46.312;25.288;2023-03-05T04:25:02;95411.88;;;-1.23;68.49
50394;BME280;36308;46.312;25.288;2023-03-05T04:27:31;95393.41;;;-1.36;68.39
50394;BME280;36308;46.312;25.288;2023-03-05T04:29:58;95411.25;;;-1.25;68.29
50394;BME280;36308;46.312;25.288;2023-03-05T04:32:24;95415.94;;;-1.27;68.63
50394;BME280;36308;46.312;25.288;2023-03-05T04:34:55;95398.47;;;-1.34;68.65
50394;BME280;36308;46.312;25.288;2023-03-05T04:37:21;95399.28;;;-1.34;68.44
50394;BME280;36308;46.312;25.288;2023-03-05T04:39:46;95398.47;;;-1.34;68.45
50394;BME280;36308;46.312;25.288;2023-03-05T04:42:12;95390.75;;;-1.36;68.85
50394;BME280;36308;46.312;25.288;2023-03-05T04:44:38;95396.84;;;-1.35;68.35
50394;BME280;36308;46.312;25.288;2023-03-05T04:47:04;95409.03;;;-1.34;68.60
50394;BME280;36308;46.312;25.288;2023-03-05T04:49:29;95425.66;;;-1.27;68.46
50394;BME280;36308;46.312;25.288;2023-03-05T04:51:55;95402.34;;;-1.37;68.51
50394;BME280;36308;46.312;25.288;2023-03-05T04:54:22;95408.00;;;-1.40;68.36
50394;BME280;36308;46.312;25.288;2023-03-05T04:56:48;95420.38;;;-1.34;68.15
50394;BME280;36308;46.312;25.288;2023-03-05T04:59:14;95412.03;;;-1.37;68.15
50394;BME280;36308;46.312;25.288;2023-03-05T05:01:39;95403.69;;;-1.48;68.59
50394;BME280;36308;46.312;25.288;2023-03-05T05:04:05;95414.28;;;-1.41;68.74
50394;BME280;36308;46.312;25.288;2023-03-05T05:06:31;95400.84;;;-1.53;68.74
50394;BME280;36308;46.312;25.288;2023-03-05T05:08:57;95411.59;;;-1.48;68.70
50394;BME280;36308;46.312;25.288;2023-03-05T05:11:22;95410.19;;;-1.50;68.70
50394;BME280;36308;46.312;25.288;2023-03-05T05:13:48;95410.19;;;-1.50;68.71
50394;BME280;36308;46.312;25.288;2023-03-05T05:16:13;95433.75;;;-1.42;68.79
50394;BME280;36308;46.312;25.288;2023-03-05T05:18:40;95417.47;;;-1.52;68.91
50394;BME280;36308;46.312;25.288;2023-03-05T05:21:11;95430.06;;;-1.48;69.19
50394;BME280;36308;46.312;25.288;2023-03-05T05:23:37;95426.63;;;-1.48;68.97
50394;BME280;36308;46.312;25.288;2023-03-05T05:26:04;95423.56;;;-1.52;69.15
50394;BME280;36308;46.312;25.288;2023-03-05T05:28:31;95431.88;;;-1.48;69.35
50394;BME280;36308;46.312;25.288;2023-03-05T05:30:57;95429.25;;;-1.48;69.48
50394;BME280;36308;46.312;25.288;2023-03-05T05:33:22;95422.13;;;-1.54;69.48
50394;BME280;36308;46.312;25.288;2023-03-05T05:35:48;95433.31;;;-1.46;69.42
50394;BME280;36308;46.312;25.288;2023-03-05T05:38:14;95417.66;;;-1.54;69.77
50394;BME280;36308;46.312;25.288;2023-03-05T05:40:40;95430.09;;;-1.41;69.95
50394;BME280;36308;46.312;25.288;2023-03-05T05:43:06;95422.38;;;-1.49;70.03
50394;BME280;36308;46.312;25.288;2023-03-05T05:45:31;95422.03;;;-1.33;69.65
50394;BME280;36308;46.312;25.288;2023-03-05T05:47:57;95425.84;;;-1.29;69.99
50394;BME280;36308;46.312;25.288;2023-03-05T05:50:22;95408.22;;;-1.35;70.06
50394;BME280;36308;46.312;25.288;2023-03-05T05:52:50;95424.06;;;-1.22;70.00
50394;BME280;36308;46.312;25.288;2023-03-05T05:55:16;95433.66;;;-1.07;70.03
50394;BME280;36308;46.312;25.288;2023-03-05T05:57:42;95440.75;;;-1.01;70.56
50394;BME280;36308;46.312;25.288;2023-03-05T06:00:09;95414.75;;;-1.04;70.04
50394;BME280;36308;46.312;25.288;2023-03-05T06:02:37;95433.47;;;-0.86;70.20
50394;BME280;36308;46.312;25.288;2023-03-05T06:05:04;95433.91;;;-0.82;70.08
50394;BME280;36308;46.312;25.288;2023-03-05T06:07:29;95424.94;;;-0.81;70.17
50394;BME280;36308;46.312;25.288;2023-03-05T06:09:56;95423.75;;;-0.72;70.61
50394;BME280;36308;46.312;25.288;2023-03-05T06:12:21;95441.63;;;-0.61;70.40
50394;BME280;36308;46.312;25.288;2023-03-05T06:14:47;95435.16;;;-0.58;70.13
50394;BME280;36308;46.312;25.288;2023-03-05T06:17:12;95428.63;;;-0.55;70.51
50394;BME280;36308;46.312;25.288;2023-03-05T06:19:38;95441.63;;;-0.41;70.40
50394;BME280;36308;46.312;25.288;2023-03-05T06:22:03;95437.97;;;-0.39;70.09
50394;BME280;36308;46.312;25.288;2023-03-05T06:24:29;95449.53;;;-0.27;70.48
50394;BME280;36308;46.312;25.288;2023-03-05T06:26:54;95464.81;;;-0.16;70.34
50394;BME280;36308;46.312;25.288;2023-03-05T06:29:20;95445.28;;;-0.22;69.78
50394;BME280;36308;46.312;25.288;2023-03-05T06:31:45;95454.84;;;-0.14;69.89
50394;BME280;36308;46.312;25.288;2023-03-05T06:34:11;95474.94;;;0.01;70.12
50394;BME280;36308;46.312;25.288;2023-03-05T06:36:37;95453.81;;;-0.06;69.60
50394;BME280;36308;46.312;25.288;2023-03-05T06:39:05;95452.00;;;-0.06;69.50
50394;BME280;36308;46.312;25.288;2023-03-05T06:41:31;95458.28;;;0.00;69.70
50394;BME280;36308;46.312;25.288;2023-03-05T06:43:58;95466.81;;;0.09;69.59
50394;BME280;36308;46.312;25.288;2023-03-05T06:46:28;95479.38;;;0.20;70.04
50394;BME280;36308;46.312;25.288;2023-03-05T06:48:56;95475.75;;;0.21;69.54
50394;BME280;36308;46.312;25.288;2023-03-05T06:51:25;95474.69;;;0.29;69.49
50394;BME280;36308;46.312;25.288;2023-03-05T06:53:53;95463.72;;;0.25;69.76
50394;BME280;36308;46.312;25.288;2023-03-05T06:56:19;95481.41;;;0.38;69.86
50394;BME280;36308;46.312;25.288;2023-03-05T06:58:47;95484.44;;;0.42;69.73
50394;BME280;36308;46.312;25.288;2023-03-05T07:01:13;95475.91;;;0.39;69.79
50394;BME280;36308;46.312;25.288;2023-03-05T07:03:39;95489.09;;;0.53;69.16
50394;BME280;36308;46.312;25.288;2023-03-05T07:06:08;95483.38;;;0.56;69.17
50394;BME280;36308;46.312;25.288;2023-03-05T07:08:34;95481.75;;;0.55;69.71
50394;BME280;36308;46.312;25.288;2023-03-05T07:11:00;95493.94;;;0.63;69.54
50394;BME280;36308;46.312;25.288;2023-03-05T07:13:26;95477.66;;;0.59;69.33
50394;BME280;36308;46.312;25.288;2023-03-05T07:15:52;95495.53;;;0.70;69.17
50394;BME280;36308;46.312;25.288;2023-03-05T07:18:17;95493.09;;;0.75;68.96
50394;BME280;36308;46.312;25.288;2023-03-05T07:20:43;95481.47;;;0.76;69.36
50394;BME280;36308;46.312;25.288;2023-03-05T07:23:08;95482.25;;;0.84;69.04
50394;BME280;36308;46.312;25.288;2023-03-05T07:25:35;95488.31;;;0.91;69.38
50394;BME280;36308;46.312;25.288;2023-03-05T07:28:01;95482.78;;;0.99;69.36
50394;BME280;36308;46.312;25.288;2023-03-05T07:30:27;95479.13;;;1.00;68.90
50394;BME280;36308;46.312;25.288;2023-03-05T07:32:52;95472.16;;;1.06;69.09
50394;BME280;36308;46.312;25.288;2023-03-05T07:35:18;95483.31;;;1.21;68.85
50394;BME280;36308;46.312;25.288;2023-03-05T07:37:43;95472.50;;;1.23;68.85
50394;BME280;36308;46.312;25.288;2023-03-05T07:40:09;95456.63;;;1.23;69.29
50394;BME280;36308;46.312;25.288;2023-03-05T07:42:35;95482.50;;;1.52;69.70
50394;BME280;36308;46.312;25.288;2023-03-05T07:45:00;95471.84;;;1.59;70.04
50394;BME280;36308;46.312;25.288;2023-03-05T07:47:26;95473.78;;;1.77;69.95
50394;BME280;36308;46.312;25.288;2023-03-05T07:49:51;95469.75;;;1.93;70.04
50394;BME280;36308;46.312;25.288;2023-03-05T07:52:17;95449.09;;;2.01;69.33
50394;BME280;36308;46.312;25.288;2023-03-05T07:54:42;95455.81;;;2.22;69.47
50394;BME280;36308;46.312;25.288;2023-03-05T07:57:09;95471.47;;;2.49;70.15
50394;BME280;36308;46.312;25.288;2023-03-05T07:59:37;95458.84;;;2.63;69.63
50394;BME280;36308;46.312;25.288;2023-03-05T08:02:02;95448.81;;;2.83;69.08
50394;BME280;36308;46.312;25.288;2023-03-05T08:04:28;95462.19;;;3.07;69.38
50394;BME280;36308;46.312;25.288;2023-03-05T08:06:56;95458.69;;;3.25;69.69
50394;BME280;36308;46.312;25.288;2023-03-05T08:09:22;95465.25;;;3.53;69.28
50394;BME280;36308;46.312;25.288;2023-03-05T08:11:47;95444.38;;;3.68;69.13
50394;BME280;36308;46.312;25.288;2023-03-05T08:14:13;95462.47;;;4.01;68.52
50394;BME280;36308;46.312;25.288;2023-03-05T08:16:39;95473.69;;;4.27;68.45
50394;BME280;36308;46.312;25.288;2023-03-05T08:19:05;95475.44;;;4.57;67.18
50394;BME280;36308;46.312;25.288;2023-03-05T08:21:33;95466.81;;;4.78;66.78
50394;BME280;36308;46.312;25.288;2023-03-05T08:24:00;95474.16;;;5.00;66.18
50394;BME280;36308;46.312;25.288;2023-03-05T08:26:28;95473.91;;;5.13;65.27
50394;BME280;36308;46.312;25.288;2023-03-05T08:28:54;95467.63;;;5.19;63.99
50394;BME280;36308;46.312;25.288;2023-03-05T08:31:21;95460.06;;;5.28;63.71
50394;BME280;36308;46.312;25.288;2023-03-05T08:33:49;95465.72;;;5.32;63.43
50394;BME280;36308;46.312;25.288;2023-03-05T08:36:14;95467.53;;;5.43;63.56
50394;BME280;36308;46.312;25.288;2023-03-05T08:38:40;95455.09;;;5.49;62.92
50394;BME280;36308;46.312;25.288;2023-03-05T08:41:06;95462.56;;;5.63;62.45
50394;BME280;36308;46.312;25.288;2023-03-05T08:43:33;95445.09;;;5.56;62.08
50394;BME280;36308;46.312;25.288;2023-03-05T08:45:59;95450.94;;;5.70;61.80
50394;BME280;36308;46.312;25.288;2023-03-05T08:48:26;95462.41;;;5.87;62.14
50394;BME280;36308;46.312;25.288;2023-03-05T08:50:51;95464.38;;;5.92;61.85
50394;BME280;36308;46.312;25.288;2023-03-05T08:53:17;95459.94;;;5.97;61.70
50394;BME280;36308;46.312;25.288;2023-03-05T08:55:42;95448.25;;;5.98;61.69
50394;BME280;36308;46.312;25.288;2023-03-05T08:58:08;95451.94;;;6.14;61.50
50394;BME280;36308;46.312;25.288;2023-03-05T09:00:33;95458.09;;;6.15;61.35
50394;BME280;36308;46.312;25.288;2023-03-05T09:02:59;95457.44;;;6.24;60.89
50394;BME280;36308;46.312;25.288;2023-03-05T09:05:24;95447.00;;;6.23;60.40
50394;BME280;36308;46.312;25.288;2023-03-05T09:07:50;95463.25;;;6.38;60.08
50394;BME280;36308;46.312;25.288;2023-03-05T09:10:16;95461.69;;;6.42;59.74
50394;BME280;36308;46.312;25.288;2023-03-05T09:12:42;95465.75;;;6.45;59.43
50394;BME280;36308;46.312;25.288;2023-03-05T09:15:09;95464.53;;;6.53;59.38
50394;BME280;36308;46.312;25.288;2023-03-05T09:17:36;95459.19;;;6.53;59.01
50394;BME280;36308;46.312;25.288;2023-03-05T09:20:03;95450.59;;;6.51;59.23
50394;BME280;36308;46.312;25.288;2023-03-05T09:22:29;95456.09;;;6.61;58.74
50394;BME280;36308;46.312;25.288;2023-03-05T09:24:55;95462.69;;;6.75;58.28
50394;BME280;36308;46.312;25.288;2023-03-05T09:27:20;95447.41;;;6.71;57.36
50394;BME280;36308;46.312;25.288;2023-03-05T09:29:46;95464.13;;;6.83;56.68
50394;BME280;36308;46.312;25.288;2023-03-05T09:32:12;95454.56;;;6.87;56.82
50394;BME280;36308;46.312;25.288;2023-03-05T09:34:37;95456.84;;;7.00;56.79
50394;BME280;36308;46.312;25.288;2023-03-05T09:37:03;95446.47;;;7.04;56.70
50394;BME280;36308;46.312;25.288;2023-03-05T09:39:29;95453.63;;;7.20;56.30
50394;BME280;36308;46.312;25.288;2023-03-05T09:45:26;95422.75;;;7.35;55.68
50394;BME280;36308;46.312;25.288;2023-03-05T09:50:39;95425.50;;;8.04;55.54
50394;BME280;36308;46.312;25.288;2023-03-05T09:55:59;95447.34;;;8.61;53.62
50394;BME280;36308;46.312;25.288;2023-03-05T09:58:53;95443.13;;;8.70;52.74
50394;BME280;36308;46.312;25.288;2023-03-05T10:01:23;95448.78;;;8.74;51.97
50394;BME280;36308;46.312;25.288;2023-03-05T10:03:59;95430.00;;;8.74;51.04
50394;BME280;36308;46.312;25.288;2023-03-05T10:06:29;95435.09;;;8.75;50.83
50394;BME280;36308;46.312;25.288;2023-03-05T10:08:57;95428.69;;;8.81;51.02
50394;BME280;36308;46.312;25.288;2023-03-05T10:13:51;95426.63;;;8.99;49.44
50394;BME280;36308;46.312;25.288;2023-03-05T10:19:13;95420.31;;;9.41;49.25
50394;BME280;36308;46.312;25.288;2023-03-05T10:22:11;95414.72;;;9.53;48.01
50394;BME280;36308;46.312;25.288;2023-03-05T10:33:11;95418.22;;;9.63;46.97
50394;BME280;36308;46.312;25.288;2023-03-05T10:38:39;95413.94;;;9.67;45.46
50394;BME280;36308;46.312;25.288;2023-03-05T10:41:19;95405.88;;;9.73;45.83
50394;BME280;36308;46.312;25.288;2023-03-05T10:44:15;95401.31;;;9.68;44.51
50394;BME280;36308;46.312;25.288;2023-03-05T10:46:44;95399.94;;;9.60;44.95
50394;BME280;36308;46.312;25.288;2023-03-05T10:49:27;95406.13;;;9.56;45.06
50394;BME280;36308;46.312;25.288;2023-03-05T10:52:13;95398.06;;;9.50;45.20
50394;BME280;36308;46.312;25.288;2023-03-05T10:54:41;95382.75;;;9.41;44.72
50394;BME280;36308;46.312;25.288;2023-03-05T10:57:24;95399.94;;;9.45;45.46
50394;BME280;36308;46.312;25.288;2023-03-05T10:59:52;95392.16;;;9.43;45.07
50394;BME280;36308;46.312;25.288;2023-03-05T11:02:19;95384.63;;;9.40;44.32
50394;BME280;36308;46.312;25.288;2023-03-05T11:04:45;95377.66;;;9.39;43.88
50394;BME280;36308;46.312;25.288;2023-03-05T11:09:44;95377.41;;;9.51;45.20
50394;BME280;36308;46.312;25.288;2023-03-05T11:12:38;95366.94;;;9.55;44.28
50394;BME280;36308;46.312;25.288;2023-03-05T11:17:35;95373.38;;;9.69;44.36
50394;BME280;36308;46.312;25.288;2023-03-05T11:23:16;95357.03;;;9.96;42.79
50394;BME280;36308;46.312;25.288;2023-03-05T11:28:34;95355.91;;;10.07;43.89
50394;BME280;36308;46.312;25.288;2023-03-05T11:36:41;95336.16;;;10.74;43.22
50394;BME280;36308;46.312;25.288;2023-03-05T11:46:53;95324.91;;;11.56;40.29
50394;BME280;36308;46.312;25.288;2023-03-05T11:49:24;95314.28;;;11.75;41.01
50394;BME280;36308;46.312;25.288;2023-03-05T11:52:07;95315.22;;;11.89;40.67
50394;BME280;36308;46.312;25.288;2023-03-05T11:57:18;95319.38;;;12.05;40.10
50394;BME280;36308;46.312;25.288;2023-03-05T11:59:45;95314.59;;;12.02;40.34
50394;BME280;36308;46.312;25.288;2023-03-05T12:02:30;95309.28;;;11.92;39.84
50394;BME280;36308;46.312;25.288;2023-03-05T12:04:55;95312.25;;;11.90;39.82
50394;BME280;36308;46.312;25.288;2023-03-05T12:07:35;95306.41;;;11.78;39.36
50394;BME280;36308;46.312;25.288;2023-03-05T12:10:03;95305.09;;;11.76;39.38
50394;BME280;36308;46.312;25.288;2023-03-05T12:21:06;95305.97;;;12.00;39.66
50394;BME280;36308;46.312;25.288;2023-03-05T12:23:56;95298.19;;;11.99;39.74
50394;BME280;36308;46.312;25.288;2023-03-05T12:32:01;95280.53;;;12.11;39.19
50394;BME280;36308;46.312;25.288;2023-03-05T12:37:57;95298.00;;;12.43;39.60
50394;BME280;36308;46.312;25.288;2023-03-05T12:50:57;95295.91;;;12.11;38.65
50394;BME280;36308;46.312;25.288;2023-03-05T12:53:24;95298.69;;;12.01;39.06
50394;BME280;36308;46.312;25.288;2023-03-05T12:55:56;95285.06;;;11.87;39.35
50394;BME280;36308;46.312;25.288;2023-03-05T12:58:35;95294.22;;;11.86;39.26
50394;BME280;36308;46.312;25.288;2023-03-05T13:01:19;95287.22;;;11.85;39.70
50394;BME280;36308;46.312;25.288;2023-03-05T13:03:54;95269.03;;;11.71;39.13
50394;BME280;36308;46.312;25.288;2023-03-05T13:08:56;95291.59;;;11.81;38.86
50394;BME280;36308;46.312;25.288;2023-03-05T13:11:22;95292.72;;;11.75;39.11
50394;BME280;36308;46.312;25.288;2023-03-05T13:13:48;95276.41;;;11.61;38.86
50394;BME280;36308;46.312;25.288;2023-03-05T13:16:37;95281.56;;;11.57;39.33
50394;BME280;36308;46.312;25.288;2023-03-05T13:19:03;95284.31;;;11.52;39.67
50394;BME280;36308;46.312;25.288;2023-03-05T13:21:39;95277.03;;;11.47;39.96
50394;BME280;36308;46.312;25.288;2023-03-05T13:24:15;95264.81;;;11.31;40.51
50394;BME280;36308;46.312;25.288;2023-03-05T13:26:40;95274.50;;;11.32;40.16
50394;BME280;36308;46.312;25.288;2023-03-05T13:31:46;95279.66;;;11.23;39.17
50394;BME280;36308;46.312;25.288;2023-03-05T13:37:00;95267.41;;;11.02;39.01
50394;BME280;36308;46.312;25.288;2023-03-05T13:39:29;95257.19;;;11.04;39.20
50394;BME280;36308;46.312;25.288;2023-03-05T13:42:15;95259.84;;;11.09;39.26
50394;BME280;36308;46.312;25.288;2023-03-05T13:44:41;95265.41;;;11.23;39.40
50394;BME280;36308;46.312;25.288;2023-03-05T13:47:08;95261.88;;;11.27;40.00
50394;BME280;36308;46.312;25.288;2023-03-05T13:49:34;95265.09;;;11.29;39.67
50394;BME280;36308;46.312;25.288;2023-03-05T13:52:00;95271.00;;;11.31;39.65
50394;BME280;36308;46.312;25.288;2023-03-05T13:54:26;95263.97;;;11.36;39.70
50394;BME280;36308;46.312;25.288;2023-03-05T13:56:59;95260.44;;;11.40;39.48
50394;BME280;36308;46.312;25.288;2023-03-05T13:59:28;95265.47;;;11.47;39.30
50394;BME280;36308;46.312;25.288;2023-03-05T14:02:00;95272.16;;;11.55;39.15
50394;BME280;36308;46.312;25.288;2023-03-05T14:04:35;95264.88;;;11.55;38.84
50394;BME280;36308;46.312;25.288;2023-03-05T14:07:27;95260.69;;;11.44;38.67
50394;BME280;36308;46.312;25.288;2023-03-05T14:09:53;95262.06;;;11.36;38.90
50394;BME280;36308;46.312;25.288;2023-03-05T14:12:35;95261.88;;;11.27;38.32
50394;BME280;36308;46.312;25.288;2023-03-05T14:15:26;95259.78;;;11.19;38.66
50394;BME280;36308;46.312;25.288;2023-03-05T14:20:40;95253.97;;;11.02;37.79
50394;BME280;36308;46.312;25.288;2023-03-05T14:31:25;95227.41;;;10.50;38.43
50394;BME280;36308;46.312;25.288;2023-03-05T14:33:52;95236.81;;;10.48;38.33
50394;BME280;36308;46.312;25.288;2023-03-05T14:36:23;95218.34;;;10.31;38.53
50394;BME280;36308;46.312;25.288;2023-03-05T14:38:51;95224.78;;;10.35;38.78
50394;BME280;36308;46.312;25.288;2023-03-05T14:41:38;95227.72;;;10.39;39.24